sensor_id;sensor_type;location;lat;lon;timestamp;P1;durP1;ratioP1;P2;durP2;ratioP2
28802;SDS011;15949;55.656;37.422;2022-11-14T00:01:25;0.52;;;0.40;;
28802;SDS011;15949;55.656;37.422;2022-11-14T00:06:31;0.90;;;0.50;;
28802;SDS011;15949;55.656;37.422;2022-11-14T00:11:36;0.60;;;0.50;;
28802;SDS011;15949;55.656;37.422;2022-11-14T00:16:42;0.88;;;0.60;;
28802;SDS011;15949;55.656;37.422;2022-11-14T00:21:48;0.77;;;0.75;;
28802;SDS011;15949;55.656;37.422;2022-11-14T00:26:53;0.95;;;0.60;;
28802;SDS011;15949;55.656;37.422;2022-11-14T00:31:59;1.23;;;0.70;;
28802;SDS011;15949;55.656;37.422;2022-11-14T00:37:04;0.98;;;0.80;;
28802;SDS011;15949;55.656;37.422;2022-11-14T00:42:10;4.88;;;0.60;;
28802;SDS011;15949;55.656;37.422;2022-11-14T00:47:16;3.38;;;0.68;;
28802;SDS011;15949;55.656;37.422;2022-11-14T00:52:21;1.05;;;0.50;;
28802;SDS011;15949;55.656;37.422;2022-11-14T00:57:27;2.60;;;0.80;;
28802;SDS011;15949;55.656;37.422;2022-11-14T01:02:33;2.20;;;0.80;;
28802;SDS011;15949;55.656;37.422;2022-11-14T01:07:38;0.90;;;0.45;;
28802;SDS011;15949;55.656;37.422;2022-11-14T01:12:44;1.85;;;0.40;;
28802;SDS011;15949;55.656;37.422;2022-11-14T01:17:49;1.40;;;0.43;;
28802;SDS011;15949;55.656;37.422;2022-11-14T01:22:55;1.42;;;0.43;;
28802;SDS011;15949;55.656;37.422;2022-11-14T01:28:01;1.85;;;0.50;;
28802;SDS011;15949;55.656;37.422;2022-11-14T01:33:10;1.03;;;0.50;;
28802;SDS011;15949;55.656;37.422;2022-11-14T01:38:16;1.73;;;0.43;;
28802;SDS011;15949;55.656;37.422;2022-11-14T01:43:25;0.77;;;0.45;;
28802;SDS011;15949;55.656;37.422;2022-11-14T01:48:39;1.88;;;0.40;;
28802;SDS011;15949;55.656;37.422;2022-11-14T01:54:07;1.05;;;0.43;;
28802;SDS011;15949;55.656;37.422;2022-11-14T01:59:20;3.70;;;0.52;;
28802;SDS011;15949;55.656;37.422;2022-11-14T02:04:32;1.42;;;0.50;;
28802;SDS011;15949;55.656;37.422;2022-11-14T02:09:43;1.35;;;0.60;;
28802;SDS011;15949;55.656;37.422;2022-11-14T02:14:50;0.88;;;0.50;;
28802;SDS011;15949;55.656;37.422;2022-11-14T02:25:08;1.40;;;0.52;;
28802;SDS011;15949;55.656;37.422;2022-11-14T02:30:19;2.25;;;0.55;;
28802;SDS011;15949;55.656;37.422;2022-11-14T02:35:26;2.10;;;0.63;;
28802;SDS011;15949;55.656;37.422;2022-11-14T02:40:31;2.13;;;0.70;;
28802;SDS011;15949;55.656;37.422;2022-11-14T02:45:37;2.08;;;0.73;;
28802;SDS011;15949;55.656;37.422;2022-11-14T02:50:43;2.65;;;0.57;;
28802;SDS011;15949;55.656;37.422;2022-11-14T02:55:48;3.08;;;0.77;;
28802;SDS011;15949;55.656;37.422;2022-11-14T03:00:54;1.63;;;0.63;;
28802;SDS011;15949;55.656;37.422;2022-11-14T03:06:00;1.73;;;0.63;;
28802;SDS011;15949;55.656;37.422;2022-11-14T03:11:07;3.38;;;0.85;;
28802;SDS011;15949;55.656;37.422;2022-11-14T03:16:14;8.88;;;0.90;;
28802;SDS011;15949;55.656;37.422;2022-11-14T03:21:20;3.35;;;0.60;;
28802;SDS011;15949;55.656;37.422;2022-11-14T03:26:27;2.38;;;0.73;;
28802;SDS011;15949;55.656;37.422;2022-11-14T03:31:32;3.28;;;0.80;;
28802;SDS011;15949;55.656;37.422;2022-11-14T03:36:38;2.55;;;0.68;;
28802;SDS011;15949;55.656;37.422;2022-11-14T03:41:43;2.22;;;0.80;;
28802;SDS011;15949;55.656;37.422;2022-11-14T03:46:50;2.90;;;0.68;;
28802;SDS011;15949;55.656;37.422;2022-11-14T03:51:56;6.63;;;1.15;;
28802;SDS011;15949;55.656;37.422;2022-11-14T03:57:02;6.40;;;0.95;;
28802;SDS011;15949;55.656;37.422;2022-11-14T04:02:07;3.40;;;0.70;;
28802;SDS011;15949;55.656;37.422;2022-11-14T04:07:13;3.85;;;0.90;;
28802;SDS011;15949;55.656;37.422;2022-11-14T04:12:19;5.85;;;1.13;;
28802;SDS011;15949;55.656;37.422;2022-11-14T04:17:24;5.05;;;0.93;;
28802;SDS011;15949;55.656;37.422;2022-11-14T04:22:30;5.38;;;0.88;;
28802;SDS011;15949;55.656;37.422;2022-11-14T04:27:35;3.28;;;0.90;;
28802;SDS011;15949;55.656;37.422;2022-11-14T04:32:43;4.85;;;1.00;;
28802;SDS011;15949;55.656;37.422;2022-11-14T04:37:49;4.15;;;1.00;;
28802;SDS011;15949;55.656;37.422;2022-11-14T04:42:55;3.22;;;0.80;;
28802;SDS011;15949;55.656;37.422;2022-11-14T04:48:01;2.08;;;0.90;;
28802;SDS011;15949;55.656;37.422;2022-11-14T04:53:06;4.85;;;1.20;;
28802;SDS011;15949;55.656;37.422;2022-11-14T04:58:12;5.38;;;1.20;;
28802;SDS011;15949;55.656;37.422;2022-11-14T05:03:18;3.88;;;1.08;;
28802;SDS011;15949;55.656;37.422;2022-11-14T05:08:23;4.40;;;1.10;;
28802;SDS011;15949;55.656;37.422;2022-11-14T05:13:29;5.72;;;1.27;;
28802;SDS011;15949;55.656;37.422;2022-11-14T05:18:35;4.55;;;1.40;;
28802;SDS011;15949;55.656;37.422;2022-11-14T05:23:41;4.68;;;1.42;;
28802;SDS011;15949;55.656;37.422;2022-11-14T05:28:47;2.55;;;0.80;;
28802;SDS011;15949;55.656;37.422;2022-11-14T05:33:52;4.72;;;1.35;;
28802;SDS011;15949;55.656;37.422;2022-11-14T05:38:58;5.25;;;1.40;;
28802;SDS011;15949;55.656;37.422;2022-11-14T05:44:04;6.15;;;1.52;;
28802;SDS011;15949;55.656;37.422;2022-11-14T05:49:09;5.07;;;1.20;;
28802;SDS011;15949;55.656;37.422;2022-11-14T05:54:15;5.82;;;1.58;;
28802;SDS011;15949;55.656;37.422;2022-11-14T05:59:21;5.90;;;1.58;;
28802;SDS011;15949;55.656;37.422;2022-11-14T06:04:26;2.40;;;1.20;;
28802;SDS011;15949;55.656;37.422;2022-11-14T06:09:32;12.02;;;1.80;;
28802;SDS011;15949;55.656;37.422;2022-11-14T06:14:37;6.47;;;1.75;;
28802;SDS011;15949;55.656;37.422;2022-11-14T06:19:43;6.95;;;1.42;;
28802;SDS011;15949;55.656;37.422;2022-11-14T06:24:48;5.85;;;1.50;;
28802;SDS011;15949;55.656;37.422;2022-11-14T06:29:54;5.50;;;1.65;;
28802;SDS011;15949;55.656;37.422;2022-11-14T06:35:00;12.95;;;1.52;;
28802;SDS011;15949;55.656;37.422;2022-11-14T06:40:05;8.40;;;2.30;;
28802;SDS011;15949;55.656;37.422;2022-11-14T06:45:11;10.07;;;1.63;;
28802;SDS011;15949;55.656;37.422;2022-11-14T06:50:17;15.68;;;1.80;;
28802;SDS011;15949;55.656;37.422;2022-11-14T06:55:23;9.52;;;2.05;;
28802;SDS011;15949;55.656;37.422;2022-11-14T07:00:28;10.05;;;1.80;;
28802;SDS011;15949;55.656;37.422;2022-11-14T07:05:34;10.32;;;1.77;;
28802;SDS011;15949;55.656;37.422;2022-11-14T07:10:39;4.65;;;1.48;;
28802;SDS011;15949;55.656;37.422;2022-11-14T07:15:49;6.57;;;1.80;;
28802;SDS011;15949;55.656;37.422;2022-11-14T07:21:05;12.25;;;2.55;;
28802;SDS011;15949;55.656;37.422;2022-11-14T07:26:11;6.30;;;1.73;;
28802;SDS011;15949;55.656;37.422;2022-11-14T07:31:17;10.35;;;1.77;;
28802;SDS011;15949;55.656;37.422;2022-11-14T07:36:23;5.68;;;1.63;;
28802;SDS011;15949;55.656;37.422;2022-11-14T07:41:29;5.95;;;1.40;;
28802;SDS011;15949;55.656;37.422;2022-11-14T07:46:35;9.30;;;1.95;;
28802;SDS011;15949;55.656;37.422;2022-11-14T07:51:40;11.30;;;1.95;;
28802;SDS011;15949;55.656;37.422;2022-11-14T07:56:46;8.82;;;1.80;;
28802;SDS011;15949;55.656;37.422;2022-11-14T08:01:51;10.27;;;1.80;;
28802;SDS011;15949;55.656;37.422;2022-11-14T08:06:57;7.72;;;1.55;;
28802;SDS011;15949;55.656;37.422;2022-11-14T08:12:03;16.45;;;2.03;;
28802;SDS011;15949;55.656;37.422;2022-11-14T08:17:09;9.75;;;1.80;;
28802;SDS011;15949;55.656;37.422;2022-11-14T08:22:15;8.43;;;1.90;;
28802;SDS011;15949;55.656;37.422;2022-11-14T08:27:20;6.70;;;1.83;;
28802;SDS011;15949;55.656;37.422;2022-11-14T08:32:26;6.07;;;1.65;;
28802;SDS011;15949;55.656;37.422;2022-11-14T08:37:32;10.73;;;1.58;;
28802;SDS011;15949;55.656;37.422;2022-11-14T08:42:37;7.82;;;1.55;;
28802;SDS011;15949;55.656;37.422;2022-11-14T08:47:49;9.48;;;1.75;;
28802;SDS011;15949;55.656;37.422;2022-11-14T08:52:55;12.23;;;2.28;;
28802;SDS011;15949;55.656;37.422;2022-11-14T08:58:00;9.30;;;2.15;;
28802;SDS011;15949;55.656;37.422;2022-11-14T09:03:10;7.85;;;1.92;;
28802;SDS011;15949;55.656;37.422;2022-11-14T09:08:18;17.95;;;1.92;;
28802;SDS011;15949;55.656;37.422;2022-11-14T09:13:24;9.88;;;2.22;;
28802;SDS011;15949;55.656;37.422;2022-11-14T09:18:31;10.05;;;2.00;;
28802;SDS011;15949;55.656;37.422;2022-11-14T09:23:37;13.43;;;1.98;;
28802;SDS011;15949;55.656;37.422;2022-11-14T09:28:43;12.45;;;2.10;;
28802;SDS011;15949;55.656;37.422;2022-11-14T09:33:48;10.90;;;2.00;;
28802;SDS011;15949;55.656;37.422;2022-11-14T09:38:54;10.23;;;2.05;;
28802;SDS011;15949;55.656;37.422;2022-11-14T09:44:03;7.88;;;1.80;;
28802;SDS011;15949;55.656;37.422;2022-11-14T09:49:22;8.75;;;1.90;;
28802;SDS011;15949;55.656;37.422;2022-11-14T09:54:41;8.93;;;1.83;;
28802;SDS011;15949;55.656;37.422;2022-11-14T09:59:53;7.53;;;1.85;;
28802;SDS011;15949;55.656;37.422;2022-11-14T10:26:51;7.88;;;2.17;;
28802;SDS011;15949;55.656;37.422;2022-11-14T10:32:25;4.10;;;1.63;;
28802;SDS011;15949;55.656;37.422;2022-11-14T10:37:36;6.68;;;1.73;;
28802;SDS011;15949;55.656;37.422;2022-11-14T10:42:59;8.27;;;2.03;;
28802;SDS011;15949;55.656;37.422;2022-11-14T10:48:09;9.23;;;1.60;;
28802;SDS011;15949;55.656;37.422;2022-11-14T10:53:26;13.00;;;2.13;;
28802;SDS011;15949;55.656;37.422;2022-11-14T10:58:39;7.40;;;1.70;;
28802;SDS011;15949;55.656;37.422;2022-11-14T11:03:45;8.57;;;1.50;;
28802;SDS011;15949;55.656;37.422;2022-11-14T11:08:50;7.35;;;1.80;;
28802;SDS011;15949;55.656;37.422;2022-11-14T11:14:16;7.18;;;1.92;;
28802;SDS011;15949;55.656;37.422;2022-11-14T11:19:24;7.70;;;2.20;;
28802;SDS011;15949;55.656;37.422;2022-11-14T11:24:34;5.53;;;1.50;;
28802;SDS011;15949;55.656;37.422;2022-11-14T11:29:41;7.75;;;2.30;;
28802;SDS011;15949;55.656;37.422;2022-11-14T11:34:47;7.38;;;2.25;;
28802;SDS011;15949;55.656;37.422;2022-11-14T11:39:56;10.93;;;2.65;;
28802;SDS011;15949;55.656;37.422;2022-11-14T11:45:09;7.63;;;2.42;;
28802;SDS011;15949;55.656;37.422;2022-11-14T11:50:21;15.18;;;2.80;;
28802;SDS011;15949;55.656;37.422;2022-11-14T11:55:29;8.25;;;2.33;;
28802;SDS011;15949;55.656;37.422;2022-11-14T12:11:04;11.70;;;2.20;;
28802;SDS011;15949;55.656;37.422;2022-11-14T12:32:42;9.55;;;2.10;;
28802;SDS011;15949;55.656;37.422;2022-11-14T12:37:51;11.18;;;2.08;;
28802;SDS011;15949;55.656;37.422;2022-11-14T12:42:59;7.38;;;1.83;;
28802;SDS011;15949;55.656;37.422;2022-11-14T13:04:06;6.97;;;2.00;;
28802;SDS011;15949;55.656;37.422;2022-11-14T13:14:49;12.70;;;2.50;;
28802;SDS011;15949;55.656;37.422;2022-11-14T13:20:33;13.60;;;2.40;;
28802;SDS011;15949;55.656;37.422;2022-11-14T13:31:21;14.52;;;2.38;;
28802;SDS011;15949;55.656;37.422;2022-11-14T13:41:59;14.50;;;2.95;;
28802;SDS011;15949;55.656;37.422;2022-11-14T13:52:54;13.00;;;2.70;;
28802;SDS011;15949;55.656;37.422;2022-11-14T14:30:22;14.45;;;3.25;;
28802;SDS011;15949;55.656;37.422;2022-11-14T14:35:29;8.93;;;2.35;;
28802;SDS011;15949;55.656;37.422;2022-11-14T14:40:36;15.43;;;3.17;;
28802;SDS011;15949;55.656;37.422;2022-11-14T14:45:50;15.63;;;2.78;;
28802;SDS011;15949;55.656;37.422;2022-11-14T14:50:57;15.35;;;3.50;;
28802;SDS011;15949;55.656;37.422;2022-11-14T14:56:05;16.80;;;2.95;;
28802;SDS011;15949;55.656;37.422;2022-11-14T15:01:21;17.83;;;3.10;;
28802;SDS011;15949;55.656;37.422;2022-11-14T15:06:35;13.10;;;2.92;;
28802;SDS011;15949;55.656;37.422;2022-11-14T15:11:43;17.30;;;3.00;;
28802;SDS011;15949;55.656;37.422;2022-11-14T15:16:52;24.00;;;3.45;;
28802;SDS011;15949;55.656;37.422;2022-11-14T15:22:22;20.23;;;3.58;;
28802;SDS011;15949;55.656;37.422;2022-11-14T15:27:29;16.25;;;3.75;;
28802;SDS011;15949;55.656;37.422;2022-11-14T15:32:36;18.60;;;3.50;;
28802;SDS011;15949;55.656;37.422;2022-11-14T15:43:36;16.60;;;3.08;;
28802;SDS011;15949;55.656;37.422;2022-11-14T15:48:44;29.10;;;3.80;;
28802;SDS011;15949;55.656;37.422;2022-11-14T15:53:49;10.25;;;3.20;;
28802;SDS011;15949;55.656;37.422;2022-11-14T15:58:57;9.05;;;3.10;;
28802;SDS011;15949;55.656;37.422;2022-11-14T16:04:03;18.40;;;3.20;;
28802;SDS011;15949;55.656;37.422;2022-11-14T16:09:16;8.23;;;2.75;;
28802;SDS011;15949;55.656;37.422;2022-11-14T16:14:23;14.93;;;3.15;;
28802;SDS011;15949;55.656;37.422;2022-11-14T16:19:29;14.68;;;2.60;;
28802;SDS011;15949;55.656;37.422;2022-11-14T16:24:34;14.77;;;2.50;;
28802;SDS011;15949;55.656;37.422;2022-11-14T16:29:40;12.43;;;2.58;;
28802;SDS011;15949;55.656;37.422;2022-11-14T16:34:45;11.60;;;2.60;;
28802;SDS011;15949;55.656;37.422;2022-11-14T16:39:51;8.77;;;2.38;;
28802;SDS011;15949;55.656;37.422;2022-11-14T16:45:00;11.75;;;3.10;;
28802;SDS011;15949;55.656;37.422;2022-11-14T16:50:06;10.07;;;2.70;;
28802;SDS011;15949;55.656;37.422;2022-11-14T16:55:12;11.45;;;3.03;;
28802;SDS011;15949;55.656;37.422;2022-11-14T17:00:18;19.15;;;3.70;;
28802;SDS011;15949;55.656;37.422;2022-11-14T17:05:24;7.22;;;2.80;;
28802;SDS011;15949;55.656;37.422;2022-11-14T17:10:29;13.77;;;3.20;;
28802;SDS011;15949;55.656;37.422;2022-11-14T17:15:35;13.30;;;2.92;;
28802;SDS011;15949;55.656;37.422;2022-11-14T17:20:41;11.07;;;2.88;;
28802;SDS011;15949;55.656;37.422;2022-11-14T17:25:47;11.15;;;2.95;;
28802;SDS011;15949;55.656;37.422;2022-11-14T17:30:53;15.82;;;2.97;;
28802;SDS011;15949;55.656;37.422;2022-11-14T17:36:03;11.32;;;2.60;;
28802;SDS011;15949;55.656;37.422;2022-11-14T17:41:12;10.48;;;2.90;;
28802;SDS011;15949;55.656;37.422;2022-11-14T17:46:18;9.43;;;2.40;;
28802;SDS011;15949;55.656;37.422;2022-11-14T17:51:23;7.38;;;2.60;;
28802;SDS011;15949;55.656;37.422;2022-11-14T17:56:32;11.02;;;2.45;;
28802;SDS011;15949;55.656;37.422;2022-11-14T18:01:37;11.20;;;2.20;;
28802;SDS011;15949;55.656;37.422;2022-11-14T18:06:43;12.02;;;2.70;;
28802;SDS011;15949;55.656;37.422;2022-11-14T18:11:48;6.95;;;2.03;;
28802;SDS011;15949;55.656;37.422;2022-11-14T18:16:54;11.63;;;2.13;;
28802;SDS011;15949;55.656;37.422;2022-11-14T18:22:00;6.15;;;2.05;;
28802;SDS011;15949;55.656;37.422;2022-11-14T18:27:05;12.90;;;2.28;;
28802;SDS011;15949;55.656;37.422;2022-11-14T18:32:11;10.45;;;2.30;;
28802;SDS011;15949;55.656;37.422;2022-11-14T18:37:17;4.43;;;2.03;;
28802;SDS011;15949;55.656;37.422;2022-11-14T18:42:22;9.35;;;1.92;;
28802;SDS011;15949;55.656;37.422;2022-11-14T18:47:29;7.85;;;2.22;;
28802;SDS011;15949;55.656;37.422;2022-11-14T18:52:34;8.77;;;1.70;;
28802;SDS011;15949;55.656;37.422;2022-11-14T18:57:41;9.48;;;2.08;;
28802;SDS011;15949;55.656;37.422;2022-11-14T19:02:49;14.13;;;2.13;;
28802;SDS011;15949;55.656;37.422;2022-11-14T19:07:55;17.35;;;1.90;;
28802;SDS011;15949;55.656;37.422;2022-11-14T19:13:01;13.45;;;2.42;;
28802;SDS011;15949;55.656;37.422;2022-11-14T19:18:07;5.80;;;1.42;;
28802;SDS011;15949;55.656;37.422;2022-11-14T19:23:12;6.40;;;1.40;;
28802;SDS011;15949;55.656;37.422;2022-11-14T19:28:18;3.53;;;1.13;;
28802;SDS011;15949;55.656;37.422;2022-11-14T19:33:28;7.72;;;1.27;;
28802;SDS011;15949;55.656;37.422;2022-11-14T19:38:34;4.15;;;1.40;;
28802;SDS011;15949;55.656;37.422;2022-11-14T19:43:39;5.97;;;1.40;;
28802;SDS011;15949;55.656;37.422;2022-11-14T19:48:47;10.82;;;1.40;;
28802;SDS011;15949;55.656;37.422;2022-11-14T19:53:54;3.88;;;1.20;;
28802;SDS011;15949;55.656;37.422;2022-11-14T19:59:00;8.23;;;1.40;;
28802;SDS011;15949;55.656;37.422;2022-11-14T20:04:08;6.10;;;1.58;;
28802;SDS011;15949;55.656;37.422;2022-11-14T20:09:16;9.00;;;1.45;;
28802;SDS011;15949;55.656;37.422;2022-11-14T20:14:22;3.85;;;1.00;;
28802;SDS011;15949;55.656;37.422;2022-11-14T20:19:27;3.38;;;1.10;;
28802;SDS011;15949;55.656;37.422;2022-11-14T20:24:33;6.65;;;1.38;;
28802;SDS011;15949;55.656;37.422;2022-11-14T20:29:38;7.72;;;1.23;;
28802;SDS011;15949;55.656;37.422;2022-11-14T20:34:44;4.65;;;1.27;;
28802;SDS011;15949;55.656;37.422;2022-11-14T20:39:50;5.45;;;1.30;;
28802;SDS011;15949;55.656;37.422;2022-11-14T20:44:55;8.85;;;1.35;;
28802;SDS011;15949;55.656;37.422;2022-11-14T20:50:01;8.98;;;1.60;;
28802;SDS011;15949;55.656;37.422;2022-11-14T20:55:07;5.00;;;1.95;;
28802;SDS011;15949;55.656;37.422;2022-11-14T21:00:13;3.63;;;1.33;;
28802;SDS011;15949;55.656;37.422;2022-11-14T21:05:19;6.30;;;1.20;;
28802;SDS011;15949;55.656;37.422;2022-11-14T21:10:24;7.95;;;1.77;;
28802;SDS011;15949;55.656;37.422;2022-11-14T21:15:48;6.25;;;1.45;;
28802;SDS011;15949;55.656;37.422;2022-11-14T21:21:00;2.17;;;1.25;;
28802;SDS011;15949;55.656;37.422;2022-11-14T21:26:14;6.63;;;1.40;;
28802;SDS011;15949;55.656;37.422;2022-11-14T21:36:40;3.95;;;1.05;;
28802;SDS011;15949;55.656;37.422;2022-11-14T21:41:46;4.55;;;1.23;;
28802;SDS011;15949;55.656;37.422;2022-11-14T21:46:53;6.70;;;1.00;;
28802;SDS011;15949;55.656;37.422;2022-11-14T21:51:58;5.50;;;1.10;;
28802;SDS011;15949;55.656;37.422;2022-11-14T21:57:04;3.00;;;0.80;;
28802;SDS011;15949;55.656;37.422;2022-11-14T22:02:10;4.22;;;1.00;;
28802;SDS011;15949;55.656;37.422;2022-11-14T22:07:38;4.93;;;1.10;;
28802;SDS011;15949;55.656;37.422;2022-11-14T22:12:46;7.00;;;1.35;;
28802;SDS011;15949;55.656;37.422;2022-11-14T22:17:52;5.05;;;1.13;;
28802;SDS011;15949;55.656;37.422;2022-11-14T22:22:58;3.13;;;1.05;;
28802;SDS011;15949;55.656;37.422;2022-11-14T22:28:04;4.85;;;1.13;;
28802;SDS011;15949;55.656;37.422;2022-11-14T22:33:09;2.60;;;1.02;;
28802;SDS011;15949;55.656;37.422;2022-11-14T22:38:15;7.07;;;1.30;;
28802;SDS011;15949;55.656;37.422;2022-11-14T22:43:20;2.53;;;0.90;;
28802;SDS011;15949;55.656;37.422;2022-11-14T22:48:27;6.70;;;1.00;;
28802;SDS011;15949;55.656;37.422;2022-11-14T22:53:36;6.18;;;1.20;;
28802;SDS011;15949;55.656;37.422;2022-11-14T22:58:42;5.88;;;1.10;;
28802;SDS011;15949;55.656;37.422;2022-11-14T23:03:53;3.17;;;1.10;;
28802;SDS011;15949;55.656;37.422;2022-11-14T23:09:00;4.85;;;1.13;;
28802;SDS011;15949;55.656;37.422;2022-11-14T23:14:07;4.60;;;1.20;;
28802;SDS011;15949;55.656;37.422;2022-11-14T23:19:16;4.40;;;1.23;;
28802;SDS011;15949;55.656;37.422;2022-11-14T23:24:21;6.57;;;1.40;;
28802;SDS011;15949;55.656;37.422;2022-11-14T23:29:27;5.53;;;1.30;;
28802;SDS011;15949;55.656;37.422;2022-11-14T23:34:32;6.78;;;1.33;;
28802;SDS011;15949;55.656;37.422;2022-11-14T23:39:38;6.18;;;1.05;;
28802;SDS011;15949;55.656;37.422;2022-11-14T23:44:43;4.47;;;1.13;;
28802;SDS011;15949;55.656;37.422;2022-11-14T23:49:49;5.85;;;1.20;;
28802;SDS011;15949;55.656;37.422;2022-11-14T23:54:54;15.40;;;5.63;;
